Bou Saada Airport

DAAD · M'Sila, 阿尔及利亚

罗盘
风向 的 风向 120° Bou Saada Airport 4/22
风: 16 kt, 4 beaufort

3 kt

16 kt
改变
0 ft 1.000 2.000 3.000 4.000 5.000
Cloud Cloud Cloud Cloud Cloud Cloud
BKN 3.000
METAR DAAD 191000Z 12016KT 3000 BLSA BKN030 35/07 Q1017

METAR Bou Saada Airport - DAAD/BUJ

Bou Saada Airport是,阿尔及利亚中的中型机场。 该机场位于纬度35,33278和经度4,20595。 该机场有一条跑道: 4/22. 本场的ICAO机场代码为DAAD。 该机场的IATA代码为BUJ。 机场在Alger FIR中。

该航空气象观测是针对Bou Saada Airport在2024年6月19日 11:00, 当地时间进行的。

机场观察

风向为120°,速度为16 kt。

可见度为3 km。

有碎云在3.000 ft的高度。 破损或更高的上限为3.000 ft。

当前天气为吹 沙。 温度和风寒是35 °C。 露点为7 °C,相对湿度为18%。 海平面上的气压为1017 hPa (QNH)。

白天

今天,太阳从05:28升起,在20:00降落。 这适用于Bou Saada Airport,世界夏令时可能有所不同。 当地时间与世界标准时间之间的时差为+1 小时。 夏令时目前正在进行中。

公司介绍

我们没有关于这个机场的公司信息。

体会

到Vliegles.nl去找飞行课程,跳伞和其他飞行体验。 浏览页面,了解Bou Saada Airport附近所有可用的活动。 你也可以使用搜索功能来寻找你所在地附近的特定飞行课程、跳伞或其他飞行体验。

跑道

Id 标题 侧风 逆风 侧风 %
4/22 040°-220° 16 kt 3 kt 98 %

逆风成分最大的方向会被突出显示,并用于横风计算。 这并不一定意味着这个方向在使用。

乌云

3.000 ft BKN 碎云

温度 & 天气

天气 吹 沙
温度 35 °C
露点 7 °C
相对湿度 18%
Kp-index 1 (0-9)

白天

日出
05:28
中午
12:44
日落
20:00 (8:34)

小工具

你想在你的网站上有一个关于Bou Saada Airport的当前航空天气(METAR)的小部件吗?

显示HTML代码
报告变更